sensor_id;sensor_type;location;lat;lon;timestamp;temperature;humidity
28244;DHT22;15510;52.512;13.300;2023-07-20T00:01:46;18.30;99.90
28244;DHT22;15510;52.512;13.300;2023-07-20T00:04:13;18.30;99.90
28244;DHT22;15510;52.512;13.300;2023-07-20T00:06:39;18.20;99.90
28244;DHT22;15510;52.512;13.300;2023-07-20T00:09:06;18.20;99.90
28244;DHT22;15510;52.512;13.300;2023-07-20T00:11:36;18.10;99.90
28244;DHT22;15510;52.512;13.300;2023-07-20T00:14:02;18.10;99.90
28244;DHT22;15510;52.512;13.300;2023-07-20T00:16:27;18.00;99.90
28244;DHT22;15510;52.512;13.300;2023-07-20T00:18:53;17.90;99.90
28244;DHT22;15510;52.512;13.300;2023-07-20T00:21:19;17.90;99.90
28244;DHT22;15510;52.512;13.300;2023-07-20T00:23:45;17.90;99.90
28244;DHT22;15510;52.512;13.300;2023-07-20T00:26:11;17.90;99.90
28244;DHT22;15510;52.512;13.300;2023-07-20T00:28:36;17.80;99.90
28244;DHT22;15510;52.512;13.300;2023-07-20T00:31:03;17.80;99.90
28244;DHT22;15510;52.512;13.300;2023-07-20T00:33:29;17.70;99.90
28244;DHT22;15510;52.512;13.300;2023-07-20T00:35:54;17.70;99.90
28244;DHT22;15510;52.512;13.300;2023-07-20T00:38:20;17.60;99.90
28244;DHT22;15510;52.512;13.300;2023-07-20T00:40:47;17.60;99.90
28244;DHT22;15510;52.512;13.300;2023-07-20T00:43:15;17.50;99.90
28244;DHT22;15510;52.512;13.300;2023-07-20T00:45:41;17.40;99.90
28244;DHT22;15510;52.512;13.300;2023-07-20T00:48:07;17.50;99.90
28244;DHT22;15510;52.512;13.300;2023-07-20T00:50:34;17.50;99.90
28244;DHT22;15510;52.512;13.300;2023-07-20T00:53:03;17.40;99.90
28244;DHT22;15510;52.512;13.300;2023-07-20T00:55:32;17.30;99.90
28244;DHT22;15510;52.512;13.300;2023-07-20T00:57:59;17.30;99.90
28244;DHT22;15510;52.512;13.300;2023-07-20T01:00:25;17.40;99.90
28244;DHT22;15510;52.512;13.300;2023-07-20T01:02:51;17.40;99.90
28244;DHT22;15510;52.512;13.300;2023-07-20T01:05:17;17.50;99.90
28244;DHT22;15510;52.512;13.300;2023-07-20T01:07:53;17.50;99.90
28244;DHT22;15510;52.512;13.300;2023-07-20T01:11:36;17.60;99.90
28244;DHT22;15510;52.512;13.300;2023-07-20T01:13:37;17.50;99.90
28244;DHT22;15510;52.512;13.300;2023-07-20T01:16:03;17.50;99.90
28244;DHT22;15510;52.512;13.300;2023-07-20T01:18:29;17.50;99.90
28244;DHT22;15510;52.512;13.300;2023-07-20T01:20:59;17.40;99.90
28244;DHT22;15510;52.512;13.300;2023-07-20T01:23:49;17.50;99.90
28244;DHT22;15510;52.512;13.300;2023-07-20T01:32:17;17.40;99.90
28244;DHT22;15510;52.512;13.300;2023-07-20T01:34:44;17.30;99.90
28244;DHT22;15510;52.512;13.300;2023-07-20T01:37:11;17.40;99.90
28244;DHT22;15510;52.512;13.300;2023-07-20T01:39:38;17.40;99.90
28244;DHT22;15510;52.512;13.300;2023-07-20T01:42:05;17.40;99.90
28244;DHT22;15510;52.512;13.300;2023-07-20T01:44:30;17.40;99.90
28244;DHT22;15510;52.512;13.300;2023-07-20T01:46:56;17.40;99.90
28244;DHT22;15510;52.512;13.300;2023-07-20T01:49:22;17.40;99.90
28244;DHT22;15510;52.512;13.300;2023-07-20T01:51:47;17.50;99.90
28244;DHT22;15510;52.512;13.300;2023-07-20T01:54:13;17.50;99.90
28244;DHT22;15510;52.512;13.300;2023-07-20T01:56:40;17.50;99.90
28244;DHT22;15510;52.512;13.300;2023-07-20T01:59:06;17.50;99.90
28244;DHT22;15510;52.512;13.300;2023-07-20T02:01:32;17.50;99.90
28244;DHT22;15510;52.512;13.300;2023-07-20T02:03:57;17.30;99.90
28244;DHT22;15510;52.512;13.300;2023-07-20T02:06:23;17.30;99.90
28244;DHT22;15510;52.512;13.300;2023-07-20T02:08:49;17.30;99.90
28244;DHT22;15510;52.512;13.300;2023-07-20T02:11:14;17.20;99.90
28244;DHT22;15510;52.512;13.300;2023-07-20T02:13:40;17.20;99.90
28244;DHT22;15510;52.512;13.300;2023-07-20T02:16:06;17.30;99.90
28244;DHT22;15510;52.512;13.300;2023-07-20T02:18:31;17.40;99.90
28244;DHT22;15510;52.512;13.300;2023-07-20T02:20:57;17.40;99.90
28244;DHT22;15510;52.512;13.300;2023-07-20T02:23:23;17.40;99.90
28244;DHT22;15510;52.512;13.300;2023-07-20T02:25:48;17.40;99.90
28244;DHT22;15510;52.512;13.300;2023-07-20T02:28:14;17.30;99.90
28244;DHT22;15510;52.512;13.300;2023-07-20T02:30:40;17.20;99.90
28244;DHT22;15510;52.512;13.300;2023-07-20T02:33:07;17.20;99.90
28244;DHT22;15510;52.512;13.300;2023-07-20T02:35:33;17.20;99.90
28244;DHT22;15510;52.512;13.300;2023-07-20T02:37:58;17.10;99.90
28244;DHT22;15510;52.512;13.300;2023-07-20T02:40:24;17.10;99.90
28244;DHT22;15510;52.512;13.300;2023-07-20T02:42:50;17.10;99.90
28244;DHT22;15510;52.512;13.300;2023-07-20T02:45:16;17.10;99.90
28244;DHT22;15510;52.512;13.300;2023-07-20T02:47:42;17.30;99.90
28244;DHT22;15510;52.512;13.300;2023-07-20T02:50:08;17.30;99.90
28244;DHT22;15510;52.512;13.300;2023-07-20T02:52:34;17.30;99.90
28244;DHT22;15510;52.512;13.300;2023-07-20T02:54:59;17.40;99.90
28244;DHT22;15510;52.512;13.300;2023-07-20T02:57:26;17.50;99.90
28244;DHT22;15510;52.512;13.300;2023-07-20T02:59:52;17.50;99.90
28244;DHT22;15510;52.512;13.300;2023-07-20T03:02:19;17.50;99.90
28244;DHT22;15510;52.512;13.300;2023-07-20T03:04:44;17.60;99.90
28244;DHT22;15510;52.512;13.300;2023-07-20T03:07:10;17.50;99.90
28244;DHT22;15510;52.512;13.300;2023-07-20T03:09:36;17.50;99.90
28244;DHT22;15510;52.512;13.300;2023-07-20T03:12:01;17.50;99.90
28244;DHT22;15510;52.512;13.300;2023-07-20T03:14:30;17.50;99.90
28244;DHT22;15510;52.512;13.300;2023-07-20T03:16:56;17.50;99.90
28244;DHT22;15510;52.512;13.300;2023-07-20T03:19:22;17.60;99.90
28244;DHT22;15510;52.512;13.300;2023-07-20T03:21:47;17.70;99.90
28244;DHT22;15510;52.512;13.300;2023-07-20T03:24:14;17.70;99.90
28244;DHT22;15510;52.512;13.300;2023-07-20T03:26:39;17.70;99.90
28244;DHT22;15510;52.512;13.300;2023-07-20T03:29:06;17.60;99.90
28244;DHT22;15510;52.512;13.300;2023-07-20T03:31:32;17.60;99.90
28244;DHT22;15510;52.512;13.300;2023-07-20T03:33:58;17.70;99.90
28244;DHT22;15510;52.512;13.300;2023-07-20T03:36:24;17.70;99.90
28244;DHT22;15510;52.512;13.300;2023-07-20T03:38:50;17.80;99.90
28244;DHT22;15510;52.512;13.300;2023-07-20T03:41:15;17.80;99.90
28244;DHT22;15510;52.512;13.300;2023-07-20T03:43:42;17.80;99.90
28244;DHT22;15510;52.512;13.300;2023-07-20T03:46:07;17.70;99.90
28244;DHT22;15510;52.512;13.300;2023-07-20T03:48:33;17.60;99.90
28244;DHT22;15510;52.512;13.300;2023-07-20T03:50:59;17.50;99.90
28244;DHT22;15510;52.512;13.300;2023-07-20T03:53:26;17.40;99.90
28244;DHT22;15510;52.512;13.300;2023-07-20T03:55:53;17.30;99.90
28244;DHT22;15510;52.512;13.300;2023-07-20T03:58:19;17.20;99.90
28244;DHT22;15510;52.512;13.300;2023-07-20T04:00:50;17.20;99.90
28244;DHT22;15510;52.512;13.300;2023-07-20T04:03:20;17.10;99.90
28244;DHT22;15510;52.512;13.300;2023-07-20T04:05:46;17.20;99.90
28244;DHT22;15510;52.512;13.300;2023-07-20T04:08:12;17.20;99.90
28244;DHT22;15510;52.512;13.300;2023-07-20T04:10:38;17.20;99.90
28244;DHT22;15510;52.512;13.300;2023-07-20T04:13:04;17.20;99.90
28244;DHT22;15510;52.512;13.300;2023-07-20T04:15:31;17.20;99.90
28244;DHT22;15510;52.512;13.300;2023-07-20T04:17:57;17.20;99.90
28244;DHT22;15510;52.512;13.300;2023-07-20T04:20:23;17.20;99.90
28244;DHT22;15510;52.512;13.300;2023-07-20T04:22:49;17.20;99.90
28244;DHT22;15510;52.512;13.300;2023-07-20T04:25:17;17.30;99.90
28244;DHT22;15510;52.512;13.300;2023-07-20T04:27:43;17.30;99.90
28244;DHT22;15510;52.512;13.300;2023-07-20T04:30:10;17.40;99.90
28244;DHT22;15510;52.512;13.300;2023-07-20T04:32:37;17.30;99.90
28244;DHT22;15510;52.512;13.300;2023-07-20T04:35:07;17.20;99.90
28244;DHT22;15510;52.512;13.300;2023-07-20T04:37:39;17.30;99.90
28244;DHT22;15510;52.512;13.300;2023-07-20T04:40:15;17.30;99.90
28244;DHT22;15510;52.512;13.300;2023-07-20T04:42:41;17.20;99.90
28244;DHT22;15510;52.512;13.300;2023-07-20T04:45:07;17.30;99.90
28244;DHT22;15510;52.512;13.300;2023-07-20T04:47:33;17.20;99.90
28244;DHT22;15510;52.512;13.300;2023-07-20T04:49:59;17.20;99.90
28244;DHT22;15510;52.512;13.300;2023-07-20T04:52:25;17.30;99.90
28244;DHT22;15510;52.512;13.300;2023-07-20T04:54:51;17.30;99.90
28244;DHT22;15510;52.512;13.300;2023-07-20T04:57:16;17.30;99.90
28244;DHT22;15510;52.512;13.300;2023-07-20T04:59:57;17.30;99.90
28244;DHT22;15510;52.512;13.300;2023-07-20T05:02:23;17.20;99.90
28244;DHT22;15510;52.512;13.300;2023-07-20T05:04:48;17.30;99.90
28244;DHT22;15510;52.512;13.300;2023-07-20T05:07:14;17.30;99.90
28244;DHT22;15510;52.512;13.300;2023-07-20T05:09:40;17.40;99.90
28244;DHT22;15510;52.512;13.300;2023-07-20T05:12:06;17.40;99.90
28244;DHT22;15510;52.512;13.300;2023-07-20T05:14:32;17.40;99.90
28244;DHT22;15510;52.512;13.300;2023-07-20T05:16:59;17.30;99.90
28244;DHT22;15510;52.512;13.300;2023-07-20T05:19:25;17.30;99.90
28244;DHT22;15510;52.512;13.300;2023-07-20T05:21:51;17.30;99.90
28244;DHT22;15510;52.512;13.300;2023-07-20T05:24:17;17.30;99.90
28244;DHT22;15510;52.512;13.300;2023-07-20T05:26:42;17.30;99.90
28244;DHT22;15510;52.512;13.300;2023-07-20T05:29:08;17.40;99.90
28244;DHT22;15510;52.512;13.300;2023-07-20T05:31:34;17.50;99.90
28244;DHT22;15510;52.512;13.300;2023-07-20T05:33:59;17.50;99.90
28244;DHT22;15510;52.512;13.300;2023-07-20T05:36:25;17.70;99.90
28244;DHT22;15510;52.512;13.300;2023-07-20T05:38:51;17.70;99.90
28244;DHT22;15510;52.512;13.300;2023-07-20T05:41:20;17.80;99.90
28244;DHT22;15510;52.512;13.300;2023-07-20T05:43:48;17.80;99.90
28244;DHT22;15510;52.512;13.300;2023-07-20T05:46:14;17.90;99.90
28244;DHT22;15510;52.512;13.300;2023-07-20T05:48:41;18.10;99.90
28244;DHT22;15510;52.512;13.300;2023-07-20T05:51:06;18.10;99.90
28244;DHT22;15510;52.512;13.300;2023-07-20T05:53:32;18.20;99.90
28244;DHT22;15510;52.512;13.300;2023-07-20T05:55:58;18.20;99.90
28244;DHT22;15510;52.512;13.300;2023-07-20T05:58:24;18.10;99.90
28244;DHT22;15510;52.512;13.300;2023-07-20T06:00:53;18.00;99.90
28244;DHT22;15510;52.512;13.300;2023-07-20T06:03:19;18.10;99.90
28244;DHT22;15510;52.512;13.300;2023-07-20T06:05:49;18.10;99.90
28244;DHT22;15510;52.512;13.300;2023-07-20T06:08:15;18.10;99.90
28244;DHT22;15510;52.512;13.300;2023-07-20T06:10:41;18.20;99.90
28244;DHT22;15510;52.512;13.300;2023-07-20T06:13:07;18.30;99.90
28244;DHT22;15510;52.512;13.300;2023-07-20T06:15:35;18.40;99.90
28244;DHT22;15510;52.512;13.300;2023-07-20T06:18:01;18.50;99.90
28244;DHT22;15510;52.512;13.300;2023-07-20T06:20:30;18.50;99.90
28244;DHT22;15510;52.512;13.300;2023-07-20T06:22:56;18.60;99.90
28244;DHT22;15510;52.512;13.300;2023-07-20T06:25:22;18.50;99.90
28244;DHT22;15510;52.512;13.300;2023-07-20T06:27:50;18.50;99.90
28244;DHT22;15510;52.512;13.300;2023-07-20T06:30:19;18.50;99.90
28244;DHT22;15510;52.512;13.300;2023-07-20T06:32:48;18.60;99.90
28244;DHT22;15510;52.512;13.300;2023-07-20T06:35:15;18.60;99.90
28244;DHT22;15510;52.512;13.300;2023-07-20T06:37:41;18.60;99.90
28244;DHT22;15510;52.512;13.300;2023-07-20T06:40:07;18.70;99.90
28244;DHT22;15510;52.512;13.300;2023-07-20T06:42:36;18.80;99.90
28244;DHT22;15510;52.512;13.300;2023-07-20T06:45:02;18.90;99.90
28244;DHT22;15510;52.512;13.300;2023-07-20T06:47:28;19.00;99.90
28244;DHT22;15510;52.512;13.300;2023-07-20T06:49:56;18.80;99.90
28244;DHT22;15510;52.512;13.300;2023-07-20T06:52:22;18.70;99.90
28244;DHT22;15510;52.512;13.300;2023-07-20T06:54:54;18.90;99.90
28244;DHT22;15510;52.512;13.300;2023-07-20T06:57:20;19.00;99.90
28244;DHT22;15510;52.512;13.300;2023-07-20T06:59:45;19.10;99.90
28244;DHT22;15510;52.512;13.300;2023-07-20T07:02:11;19.20;99.90
28244;DHT22;15510;52.512;13.300;2023-07-20T07:04:37;19.30;99.90
28244;DHT22;15510;52.512;13.300;2023-07-20T07:07:03;19.40;99.90
28244;DHT22;15510;52.512;13.300;2023-07-20T07:09:32;19.30;99.90
28244;DHT22;15510;52.512;13.300;2023-07-20T07:11:58;19.40;99.90
28244;DHT22;15510;52.512;13.300;2023-07-20T07:14:24;19.40;99.90
28244;DHT22;15510;52.512;13.300;2023-07-20T07:16:50;19.40;99.90
28244;DHT22;15510;52.512;13.300;2023-07-20T07:19:15;19.40;99.90
28244;DHT22;15510;52.512;13.300;2023-07-20T07:21:41;19.50;99.90
28244;DHT22;15510;52.512;13.300;2023-07-20T07:24:07;19.70;99.90
28244;DHT22;15510;52.512;13.300;2023-07-20T07:26:39;19.80;99.90
28244;DHT22;15510;52.512;13.300;2023-07-20T07:29:05;19.80;99.90
28244;DHT22;15510;52.512;13.300;2023-07-20T07:31:34;19.70;99.90
28244;DHT22;15510;52.512;13.300;2023-07-20T07:34:02;19.70;99.90
28244;DHT22;15510;52.512;13.300;2023-07-20T07:36:28;19.60;99.90
28244;DHT22;15510;52.512;13.300;2023-07-20T07:38:54;19.70;99.90
28244;DHT22;15510;52.512;13.300;2023-07-20T07:41:25;19.70;99.90
28244;DHT22;15510;52.512;13.300;2023-07-20T07:43:50;19.90;99.90
28244;DHT22;15510;52.512;13.300;2023-07-20T07:46:16;20.10;99.90
28244;DHT22;15510;52.512;13.300;2023-07-20T07:48:43;20.40;99.90
28244;DHT22;15510;52.512;13.300;2023-07-20T07:51:08;20.70;99.90
28244;DHT22;15510;52.512;13.300;2023-07-20T07:53:34;21.00;99.90
28244;DHT22;15510;52.512;13.300;2023-07-20T07:56:02;21.10;99.90
28244;DHT22;15510;52.512;13.300;2023-07-20T07:58:29;21.20;99.90
28244;DHT22;15510;52.512;13.300;2023-07-20T08:00:55;21.30;99.90
28244;DHT22;15510;52.512;13.300;2023-07-20T08:03:20;21.30;99.90
28244;DHT22;15510;52.512;13.300;2023-07-20T08:05:47;21.40;99.90
28244;DHT22;15510;52.512;13.300;2023-07-20T08:08:12;21.30;99.90
28244;DHT22;15510;52.512;13.300;2023-07-20T08:10:38;21.20;99.90
28244;DHT22;15510;52.512;13.300;2023-07-20T08:13:04;21.20;99.90
28244;DHT22;15510;52.512;13.300;2023-07-20T08:15:29;21.20;99.90
28244;DHT22;15510;52.512;13.300;2023-07-20T08:17:55;21.20;99.90
28244;DHT22;15510;52.512;13.300;2023-07-20T08:20:22;21.30;99.90
28244;DHT22;15510;52.512;13.300;2023-07-20T08:22:53;21.30;99.90
28244;DHT22;15510;52.512;13.300;2023-07-20T08:25:19;21.40;99.90
28244;DHT22;15510;52.512;13.300;2023-07-20T08:27:45;21.40;99.90
28244;DHT22;15510;52.512;13.300;2023-07-20T08:30:13;21.30;99.90
28244;DHT22;15510;52.512;13.300;2023-07-20T08:32:38;21.30;99.90
28244;DHT22;15510;52.512;13.300;2023-07-20T08:35:05;21.40;99.90
28244;DHT22;15510;52.512;13.300;2023-07-20T08:37:31;21.60;99.90
28244;DHT22;15510;52.512;13.300;2023-07-20T08:39:57;21.70;99.90
28244;DHT22;15510;52.512;13.300;2023-07-20T08:42:23;21.70;99.90
28244;DHT22;15510;52.512;13.300;2023-07-20T08:44:49;21.70;99.90
28244;DHT22;15510;52.512;13.300;2023-07-20T08:47:17;21.50;99.90
28244;DHT22;15510;52.512;13.300;2023-07-20T08:49:45;21.50;99.90
28244;DHT22;15510;52.512;13.300;2023-07-20T08:52:13;21.40;99.90
28244;DHT22;15510;52.512;13.300;2023-07-20T08:54:40;21.40;99.90
28244;DHT22;15510;52.512;13.300;2023-07-20T08:57:06;21.60;99.90
28244;DHT22;15510;52.512;13.300;2023-07-20T08:59:34;21.50;99.90
28244;DHT22;15510;52.512;13.300;2023-07-20T09:02:02;21.60;99.90
28244;DHT22;15510;52.512;13.300;2023-07-20T09:04:29;21.80;99.90
28244;DHT22;15510;52.512;13.300;2023-07-20T09:06:56;22.00;99.90
28244;DHT22;15510;52.512;13.300;2023-07-20T09:09:22;22.10;99.90
28244;DHT22;15510;52.512;13.300;2023-07-20T09:11:51;21.90;99.90
28244;DHT22;15510;52.512;13.300;2023-07-20T09:14:17;22.00;99.90
28244;DHT22;15510;52.512;13.300;2023-07-20T09:16:54;22.20;99.90
28244;DHT22;15510;52.512;13.300;2023-07-20T09:19:20;22.50;99.90
28244;DHT22;15510;52.512;13.300;2023-07-20T09:21:51;22.50;99.90
28244;DHT22;15510;52.512;13.300;2023-07-20T09:24:21;22.50;99.90
28244;DHT22;15510;52.512;13.300;2023-07-20T09:26:48;22.60;99.90
28244;DHT22;15510;52.512;13.300;2023-07-20T09:29:17;22.70;99.90
28244;DHT22;15510;52.512;13.300;2023-07-20T09:32:04;22.70;99.90
28244;DHT22;15510;52.512;13.300;2023-07-20T09:34:30;22.60;99.90
28244;DHT22;15510;52.512;13.300;2023-07-20T09:37:00;22.20;99.90
28244;DHT22;15510;52.512;13.300;2023-07-20T09:39:27;21.90;99.90
28244;DHT22;15510;52.512;13.300;2023-07-20T09:41:52;21.60;99.90
28244;DHT22;15510;52.512;13.300;2023-07-20T09:44:19;21.20;99.90
28244;DHT22;15510;52.512;13.300;2023-07-20T09:46:49;20.80;99.90
28244;DHT22;15510;52.512;13.300;2023-07-20T09:49:17;20.60;99.90
28244;DHT22;15510;52.512;13.300;2023-07-20T09:51:46;20.30;99.90
28244;DHT22;15510;52.512;13.300;2023-07-20T09:54:13;20.20;99.90
28244;DHT22;15510;52.512;13.300;2023-07-20T09:56:39;20.10;99.90
28244;DHT22;15510;52.512;13.300;2023-07-20T09:59:06;20.00;99.90
28244;DHT22;15510;52.512;13.300;2023-07-20T10:01:34;20.10;99.90
28244;DHT22;15510;52.512;13.300;2023-07-20T10:04:03;20.10;99.90
28244;DHT22;15510;52.512;13.300;2023-07-20T10:06:32;20.20;99.90
28244;DHT22;15510;52.512;13.300;2023-07-20T10:09:02;20.40;99.90
28244;DHT22;15510;52.512;13.300;2023-07-20T10:11:35;20.60;99.90
28244;DHT22;15510;52.512;13.300;2023-07-20T10:14:03;20.60;99.90
28244;DHT22;15510;52.512;13.300;2023-07-20T10:16:34;20.60;99.90
28244;DHT22;15510;52.512;13.300;2023-07-20T10:19:17;20.50;99.90
28244;DHT22;15510;52.512;13.300;2023-07-20T10:22:00;20.40;99.90
28244;DHT22;15510;52.512;13.300;2023-07-20T10:24:28;20.30;99.90
28244;DHT22;15510;52.512;13.300;2023-07-20T10:26:55;20.40;99.90
28244;DHT22;15510;52.512;13.300;2023-07-20T10:29:22;20.40;99.90
28244;DHT22;15510;52.512;13.300;2023-07-20T10:31:48;20.40;99.90
28244;DHT22;15510;52.512;13.300;2023-07-20T10:34:15;20.30;99.90
28244;DHT22;15510;52.512;13.300;2023-07-20T10:36:45;20.30;99.90
28244;DHT22;15510;52.512;13.300;2023-07-20T10:39:26;20.30;99.90
28244;DHT22;15510;52.512;13.300;2023-07-20T10:42:09;20.20;99.90
28244;DHT22;15510;52.512;13.300;2023-07-20T10:44:39;20.10;99.90
28244;DHT22;15510;52.512;13.300;2023-07-20T10:47:11;20.00;99.90
28244;DHT22;15510;52.512;13.300;2023-07-20T10:50:01;20.00;99.90
28244;DHT22;15510;52.512;13.300;2023-07-20T10:52:40;20.20;99.90
28244;DHT22;15510;52.512;13.300;2023-07-20T10:55:16;20.40;99.90
28244;DHT22;15510;52.512;13.300;2023-07-20T10:57:42;20.60;99.90
28244;DHT22;15510;52.512;13.300;2023-07-20T11:00:13;20.80;99.90
28244;DHT22;15510;52.512;13.300;2023-07-20T11:02:49;21.10;99.90
28244;DHT22;15510;52.512;13.300;2023-07-20T11:05:35;21.30;99.90
28244;DHT22;15510;52.512;13.300;2023-07-20T11:08:04;21.80;99.90
28244;DHT22;15510;52.512;13.300;2023-07-20T11:10:30;22.00;99.90
28244;DHT22;15510;52.512;13.300;2023-07-20T11:13:18;22.00;99.90
28244;DHT22;15510;52.512;13.300;2023-07-20T11:16:01;21.90;99.90
28244;DHT22;15510;52.512;13.300;2023-07-20T11:18:27;21.80;99.90
28244;DHT22;15510;52.512;13.300;2023-07-20T11:20:53;21.70;99.90
28244;DHT22;15510;52.512;13.300;2023-07-20T11:23:22;21.50;99.90
28244;DHT22;15510;52.512;13.300;2023-07-20T11:25:49;21.80;99.90
28244;DHT22;15510;52.512;13.300;2023-07-20T11:28:15;22.20;99.90
28244;DHT22;15510;52.512;13.300;2023-07-20T11:30:41;22.90;99.90
28244;DHT22;15510;52.512;13.300;2023-07-20T11:33:10;24.00;99.90
28244;DHT22;15510;52.512;13.300;2023-07-20T11:35:42;25.00;99.90
28244;DHT22;15510;52.512;13.300;2023-07-20T11:43:25;27.50;99.90
28244;DHT22;15510;52.512;13.300;2023-07-20T11:45:56;28.30;96.40
28244;DHT22;15510;52.512;13.300;2023-07-20T11:48:22;28.30;94.30
28244;DHT22;15510;52.512;13.300;2023-07-20T11:50:48;29.00;92.70
28244;DHT22;15510;52.512;13.300;2023-07-20T11:53:14;29.00;89.00
28244;DHT22;15510;52.512;13.300;2023-07-20T11:55:41;28.30;90.00
28244;DHT22;15510;52.512;13.300;2023-07-20T11:58:08;27.40;91.90
28244;DHT22;15510;52.512;13.300;2023-07-20T12:00:35;26.40;95.50
28244;DHT22;15510;52.512;13.300;2023-07-20T12:03:01;25.50;98.40
28244;DHT22;15510;52.512;13.300;2023-07-20T12:05:27;24.70;99.90
28244;DHT22;15510;52.512;13.300;2023-07-20T12:07:53;24.10;99.90
28244;DHT22;15510;52.512;13.300;2023-07-20T12:10:27;23.40;99.90
28244;DHT22;15510;52.512;13.300;2023-07-20T12:13:01;23.00;99.90
28244;DHT22;15510;52.512;13.300;2023-07-20T12:15:29;22.90;99.90
28244;DHT22;15510;52.512;13.300;2023-07-20T12:17:57;22.90;99.90
28244;DHT22;15510;52.512;13.300;2023-07-20T12:20:34;23.30;99.90
28244;DHT22;15510;52.512;13.300;2023-07-20T12:23:13;23.30;99.90
28244;DHT22;15510;52.512;13.300;2023-07-20T12:25:46;23.30;99.90
28244;DHT22;15510;52.512;13.300;2023-07-20T12:28:13;23.00;99.90
28244;DHT22;15510;52.512;13.300;2023-07-20T12:30:40;22.70;99.90
28244;DHT22;15510;52.512;13.300;2023-07-20T12:33:06;22.60;99.90
28244;DHT22;15510;52.512;13.300;2023-07-20T12:35:32;23.00;99.90
28244;DHT22;15510;52.512;13.300;2023-07-20T12:37:58;23.90;99.90
28244;DHT22;15510;52.512;13.300;2023-07-20T12:40:25;24.90;99.90
28244;DHT22;15510;52.512;13.300;2023-07-20T12:42:51;26.50;96.90
28244;DHT22;15510;52.512;13.300;2023-07-20T12:45:17;27.00;93.90
28244;DHT22;15510;52.512;13.300;2023-07-20T12:47:42;27.30;92.00
28244;DHT22;15510;52.512;13.300;2023-07-20T12:50:11;28.40;88.80
28244;DHT22;15510;52.512;13.300;2023-07-20T12:52:39;29.30;80.70
28244;DHT22;15510;52.512;13.300;2023-07-20T12:55:06;30.70;73.70
28244;DHT22;15510;52.512;13.300;2023-07-20T12:57:34;31.20;63.20
28244;DHT22;15510;52.512;13.300;2023-07-20T13:00:01;32.10;55.70
28244;DHT22;15510;52.512;13.300;2023-07-20T13:02:29;32.80;51.30
28244;DHT22;15510;52.512;13.300;2023-07-20T13:04:58;32.90;50.00
28244;DHT22;15510;52.512;13.300;2023-07-20T13:07:35;33.50;48.00
28244;DHT22;15510;52.512;13.300;2023-07-20T13:10:02;33.30;47.50
28244;DHT22;15510;52.512;13.300;2023-07-20T13:12:30;33.10;46.60
28244;DHT22;15510;52.512;13.300;2023-07-20T13:14:56;32.40;47.00
28244;DHT22;15510;52.512;13.300;2023-07-20T13:17:22;33.00;46.60
28244;DHT22;15510;52.512;13.300;2023-07-20T13:19:48;33.70;45.50
28244;DHT22;15510;52.512;13.300;2023-07-20T13:22:15;33.40;44.30
28244;DHT22;15510;52.512;13.300;2023-07-20T13:24:41;34.00;43.40
28244;DHT22;15510;52.512;13.300;2023-07-20T13:27:11;35.00;42.00
28244;DHT22;15510;52.512;13.300;2023-07-20T13:29:36;36.00;40.50
28244;DHT22;15510;52.512;13.300;2023-07-20T13:32:03;36.70;40.00
28244;DHT22;15510;52.512;13.300;2023-07-20T13:34:30;36.80;39.60
28244;DHT22;15510;52.512;13.300;2023-07-20T13:36:57;37.00;38.80
28244;DHT22;15510;52.512;13.300;2023-07-20T13:39:22;37.20;38.70
28244;DHT22;15510;52.512;13.300;2023-07-20T13:41:50;37.40;37.90
28244;DHT22;15510;52.512;13.300;2023-07-20T13:44:15;37.70;37.00
28244;DHT22;15510;52.512;13.300;2023-07-20T13:46:41;37.90;36.30
28244;DHT22;15510;52.512;13.300;2023-07-20T13:49:07;37.60;36.50
28244;DHT22;15510;52.512;13.300;2023-07-20T13:51:32;38.10;36.30
28244;DHT22;15510;52.512;13.300;2023-07-20T13:53:58;38.60;35.90
28244;DHT22;15510;52.512;13.300;2023-07-20T13:56:24;38.60;35.00
28244;DHT22;15510;52.512;13.300;2023-07-20T13:58:50;37.20;35.70
28244;DHT22;15510;52.512;13.300;2023-07-20T14:01:16;37.40;35.80
28244;DHT22;15510;52.512;13.300;2023-07-20T14:03:43;37.60;35.80
28244;DHT22;15510;52.512;13.300;2023-07-20T14:06:09;38.00;34.30
28244;DHT22;15510;52.512;13.300;2023-07-20T14:08:35;38.20;33.20
28244;DHT22;15510;52.512;13.300;2023-07-20T14:11:01;38.50;33.30
28244;DHT22;15510;52.512;13.300;2023-07-20T14:13:27;38.90;32.80
28244;DHT22;15510;52.512;13.300;2023-07-20T14:15:52;38.70;33.40
28244;DHT22;15510;52.512;13.300;2023-07-20T14:18:18;36.60;33.70
28244;DHT22;15510;52.512;13.300;2023-07-20T14:20:44;36.10;34.50
28244;DHT22;15510;52.512;13.300;2023-07-20T14:23:10;36.00;34.60
28244;DHT22;15510;52.512;13.300;2023-07-20T14:25:35;35.50;35.00
28244;DHT22;15510;52.512;13.300;2023-07-20T14:28:01;35.00;35.20
28244;DHT22;15510;52.512;13.300;2023-07-20T14:30:27;33.70;36.10
28244;DHT22;15510;52.512;13.300;2023-07-20T14:32:53;32.50;37.90
28244;DHT22;15510;52.512;13.300;2023-07-20T14:35:19;31.60;38.90
28244;DHT22;15510;52.512;13.300;2023-07-20T14:37:45;30.50;39.40
28244;DHT22;15510;52.512;13.300;2023-07-20T14:40:13;29.50;40.70
28244;DHT22;15510;52.512;13.300;2023-07-20T14:42:39;30.10;41.20
28244;DHT22;15510;52.512;13.300;2023-07-20T14:45:05;31.40;40.20
28244;DHT22;15510;52.512;13.300;2023-07-20T14:47:31;32.70;39.40
28244;DHT22;15510;52.512;13.300;2023-07-20T14:50:01;32.70;38.50
28244;DHT22;15510;52.512;13.300;2023-07-20T14:52:28;32.60;39.10
28244;DHT22;15510;52.512;13.300;2023-07-20T14:54:54;33.40;38.00
28244;DHT22;15510;52.512;13.300;2023-07-20T14:57:20;32.80;37.80
28244;DHT22;15510;52.512;13.300;2023-07-20T14:59:47;31.40;38.40
28244;DHT22;15510;52.512;13.300;2023-07-20T15:02:13;30.00;40.20
28244;DHT22;15510;52.512;13.300;2023-07-20T15:04:48;29.00;41.20
28244;DHT22;15510;52.512;13.300;2023-07-20T15:07:21;28.30;42.80
28244;DHT22;15510;52.512;13.300;2023-07-20T15:09:47;27.80;43.90
28244;DHT22;15510;52.512;13.300;2023-07-20T15:12:13;27.30;44.80
28244;DHT22;15510;52.512;13.300;2023-07-20T15:14:41;26.80;45.70
28244;DHT22;15510;52.512;13.300;2023-07-20T15:17:08;26.20;46.60
28244;DHT22;15510;52.512;13.300;2023-07-20T15:19:34;25.60;47.30
28244;DHT22;15510;52.512;13.300;2023-07-20T15:22:02;25.30;47.50
28244;DHT22;15510;52.512;13.300;2023-07-20T15:24:32;25.20;47.30
28244;DHT22;15510;52.512;13.300;2023-07-20T15:26:58;25.20;47.60
28244;DHT22;15510;52.512;13.300;2023-07-20T15:29:24;25.20;47.70